Station Historical Data
Daily Summary for February 5, 2012 Units:  Metric    English   Both
« Previous Day
Next Day »
Daily Weekly Monthly Yearly Custom
  High: Low: Average:
Temperature: 13.9 °C 5.9 °C 10.6 °C
Dew Point: 13.3 °C 4.9 °C 8.2 °C
Humidity: 96% 64% 86%
Wind Speed: 17.7km/h 0km/h 7.2km/h
Wind Gust: 20.9km/h - -
Wind- - WNW
Pressure: 1022.2 hPa 1016.8 hPa -
Precipitation: 0 mm    
Historical Graphs
 
 
Tabular Data for February 5, 2012
Time Temperature Dew Point Pressure Wind Wind Speed Wind Gust Humidity Rainfall Rate (Hourly) Conditions
00:00 13.8 °C 13.2 °C 1016.8 hPa WSW 4.8 km/h 4.8 km/h 96% 0 mm
00:01 13.8 °C 13.2 °C 1016.8 hPa SW 3.2 km/h 4.8 km/h 96% 0 mm
00:06 13.8 °C 13.2 °C 1016.8 hPa SW 3.2 km/h 4.8 km/h 96% 0 mm
00:11 13.8 °C 13.2 °C 1016.8 hPa SW 1.6 km/h 3.2 km/h 96% 0 mm
00:16 13.8 °C 13.2 °C 1016.8 hPa SW 1.6 km/h 4.8 km/h 96% 0 mm
00:21 13.8 °C 13.2 °C 1016.8 hPa SW 3.2 km/h 4.8 km/h 96% 0 mm
00:26 13.8 °C 13.2 °C 1016.8 hPa WSW 6.4 km/h 8 km/h 96% 0 mm
00:31 13.8 °C 13.2 °C 1016.8 hPa WSW 4.8 km/h 6.4 km/h 96% 0 mm
00:36 13.8 °C 13.2 °C 1016.8 hPa WSW 3.2 km/h 8 km/h 96% 0 mm
00:41 13.8 °C 13.2 °C 1016.8 hPa WSW 8 km/h 8 km/h 96% 0 mm
00:46 13.9 °C 13.3 °C 1016.8 hPa WSW 4.8 km/h 8 km/h 96% 0 mm
00:49 13.9 °C 13.3 °C 1016.8 hPa West 3.2 km/h 8 km/h 96% 0 mm
00:54 13.8 °C 13.2 °C 1017.2 hPa WNW 9.7 km/h 14.5 km/h 96% 0 mm
00:59 13.4 °C 12.8 °C 1017.2 hPa NW 8 km/h 12.9 km/h 96% 0 mm
01:04 13.1 °C 12.4 °C 1017.2 hPa WNW 9.7 km/h 16.1 km/h 96% 0 mm
01:09 12.9 °C 12.3 °C 1017.2 hPa NW 9.7 km/h 16.1 km/h 96% 0 mm
01:14 12.8 °C 12.2 °C 1017.2 hPa NW 4.8 km/h 11.3 km/h 96% 0 mm
01:19 12.8 °C 12.2 °C 1017.5 hPa WNW 4.8 km/h 6.4 km/h 96% 0 mm
01:24 12.7 °C 12.1 °C 1017.5 hPa WNW 6.4 km/h 6.4 km/h 96% 0 mm
01:29 12.7 °C 12.1 °C 1017.2 hPa WNW 9.7 km/h 9.7 km/h 96% 0 mm
01:34 12.7 °C 12.1 °C 1017.2 hPa WNW 3.2 km/h 8 km/h 96% 0 mm
01:39 12.7 °C 12.1 °C 1017.2 hPa WNW 1.6 km/h 8 km/h 96% 0 mm
01:44 12.6 °C 12 °C 1017.2 hPa NW 3.2 km/h 8 km/h 96% 0 mm
01:49 12.6 °C 12 °C 1017.2 hPa WNW 4.8 km/h 9.7 km/h 96% 0 mm
01:54 12.6 °C 12 °C 1017.2 hPa NW 4.8 km/h 8 km/h 96% 0 mm
01:59 12.7 °C 12.1 °C 1017.2 hPa NW 6.4 km/h 8 km/h 96% 0 mm
02:04 12.6 °C 12 °C 1017.2 hPa NW 4.8 km/h 4.8 km/h 96% 0 mm
02:09 12.6 °C 12 °C 1017.2 hPa WNW 6.4 km/h 8 km/h 96% 0 mm
02:14 12.6 °C 12 °C 1016.8 hPa NW 3.2 km/h 8 km/h 96% 0 mm
02:19 12.5 °C 11.9 °C 1017.2 hPa WNW 6.4 km/h 6.4 km/h 96% 0 mm
02:24 12.5 °C 11.9 °C 1017.2 hPa WNW 6.4 km/h 6.4 km/h 96% 0 mm
02:29 12.5 °C 11.9 °C 1017.2 hPa NW 8 km/h 8 km/h 96% 0 mm
02:34 12.6 °C 11.9 °C 1017.2 hPa WNW 4.8 km/h 6.4 km/h 96% 0 mm
02:40 12.6 °C 11.9 °C 1017.5 hPa WNW 6.4 km/h 6.4 km/h 96% 0 mm
02:45 12.6 °C 11.9 °C 1017.5 hPa WNW 4.8 km/h 6.4 km/h 96% 0 mm
02:50 12.6 °C 11.9 °C 1017.5 hPa WNW 1.6 km/h 4.8 km/h 96% 0 mm
02:55 12.6 °C 11.9 °C 1017.2 hPa West 3.2 km/h 4.8 km/h 96% 0 mm
03:00 12.6 °C 11.9 °C 1017.2 hPa West 3.2 km/h 3.2 km/h 96% 0 mm
03:05 12.6 °C 11.9 °C 1017.5 hPa WNW 6.4 km/h 6.4 km/h 96% 0 mm
03:10 12.6 °C 11.9 °C 1017.5 hPa WNW 3.2 km/h 6.4 km/h 96% 0 mm
03:15 12.6 °C 11.9 °C 1017.5 hPa West 1.6 km/h 4.8 km/h 96% 0 mm
03:20 12.5 °C 11.9 °C 1017.2 hPa WNW 4.8 km/h 8 km/h 96% 0 mm
03:25 12.5 °C 11.9 °C 1017.5 hPa West 3.2 km/h 4.8 km/h 96% 0 mm
03:30 12.4 °C 11.8 °C 1017.5 hPa West 1.6 km/h 3.2 km/h 96% 0 mm
03:35 12.4 °C 11.8 °C 1017.5 hPa West 4.8 km/h 6.4 km/h 96% 0 mm
03:36 12.4 °C 11.8 °C 1017.5 hPa WNW 6.4 km/h 6.4 km/h 96% 0 mm
03:41 12.4 °C 11.8 °C 1017.8 hPa WNW 4.8 km/h 6.4 km/h 96% 0 mm
03:46 12.4 °C 11.8 °C 1017.5 hPa West 8 km/h 8 km/h 96% 0 mm
03:51 12.4 °C 11.8 °C 1017.5 hPa WNW 4.8 km/h 8 km/h 96% 0 mm
03:56 12.3 °C 11.7 °C 1017.8 hPa WNW 11.3 km/h 12.9 km/h 96% 0 mm
04:01 12.1 °C 11.5 °C 1017.5 hPa WNW 11.3 km/h 17.7 km/h 96% 0 mm
04:06 12 °C 11.4 °C 1017.5 hPa WNW 8 km/h 16.1 km/h 96% 0 mm
04:11 11.9 °C 11.3 °C 1017.5 hPa WNW 9.7 km/h 14.5 km/h 96% 0 mm
04:16 11.8 °C 11.2 °C 1017.5 hPa WNW 11.3 km/h 16.1 km/h 96% 0 mm
04:21 11.7 °C 10.9 °C 1017.5 hPa West 16.1 km/h 16.1 km/h 95% 0 mm
04:26 11.6 °C 10.9 °C 1017.5 hPa WNW 9.7 km/h 16.1 km/h 96% 0 mm
04:31 11.4 °C 10.7 °C 1017.8 hPa West 17.7 km/h 17.7 km/h 95% 0 mm
04:36 11.3 °C 10.6 °C 1017.8 hPa WNW 14.5 km/h 17.7 km/h 95% 0 mm
04:41 11.2 °C 10.4 °C 1017.8 hPa West 12.9 km/h 16.1 km/h 95% 0 mm
04:46 11.1 °C 10.3 °C 1017.8 hPa West 14.5 km/h 17.7 km/h 95% 0 mm
04:51 11 °C 10.4 °C 1017.8 hPa WNW 9.7 km/h 11.3 km/h 96% 0 mm
04:56 10.9 °C 10.3 °C 1017.8 hPa WNW 9.7 km/h 16.1 km/h 96% 0 mm
05:01 10.8 °C 10.2 °C 1017.8 hPa NW 8 km/h 17.7 km/h 96% 0 mm
05:06 10.7 °C 9.9 °C 1017.8 hPa NNW 11.3 km/h 12.9 km/h 95% 0 mm
05:11 10.6 °C 9.8 °C 1017.8 hPa NW 9.7 km/h 16.1 km/h 95% 0 mm
05:16 10.4 °C 9.7 °C 1017.8 hPa WNW 4.8 km/h 14.5 km/h 95% 0 mm
05:22 10.4 °C 9.6 °C 1017.8 hPa WNW 11.3 km/h 16.1 km/h 95% 0 mm
05:27 10.3 °C 9.7 °C 1017.8 hPa WNW 4.8 km/h 11.3 km/h 96% 0 mm
05:32 10.3 °C 9.7 °C 1017.8 hPa NW 6.4 km/h 9.7 km/h 96% 0 mm
05:37 10.2 °C 9.6 °C 1017.8 hPa NW 6.4 km/h 11.3 km/h 96% 0 mm
05:42 10.2 °C 9.6 °C 1018.2 hPa WNW 8 km/h 12.9 km/h 96% 0 mm
05:47 10.1 °C 9.5 °C 1018.2 hPa WNW 6.4 km/h 8 km/h 96% 0 mm
05:52 10.1 °C 9.4 °C 1018.2 hPa NW 6.4 km/h 11.3 km/h 96% 0 mm
05:57 10 °C 9.4 °C 1018.2 hPa NW 4.8 km/h 9.7 km/h 96% 0 mm
06:02 9.9 °C 9.3 °C 1017.8 hPa WNW 9.7 km/h 12.9 km/h 96% 0 mm
06:07 9.8 °C 9.2 °C 1017.8 hPa West 11.3 km/h 16.1 km/h 96% 0 mm
06:12 9.8 °C 9.1 °C 1017.8 hPa WNW 4.8 km/h 12.9 km/h 95% 0 mm
06:17 9.8 °C 9 °C 1018.2 hPa West 8 km/h 12.9 km/h 95% 0 mm
06:22 9.8 °C 9 °C 1017.8 hPa WNW 3.2 km/h 9.7 km/h 95% 0 mm
06:27 9.8 °C 9 °C 1017.8 hPa WNW 6.4 km/h 9.7 km/h 95% 0 mm
06:32 9.7 °C 8.9 °C 1017.8 hPa WNW 11.3 km/h 12.9 km/h 95% 0 mm
06:37 9.7 °C 8.9 °C 1017.8 hPa NW 9.7 km/h 12.9 km/h 95% 0 mm
06:42 9.7 °C 8.9 °C 1017.8 hPa West 9.7 km/h 14.5 km/h 95% 0 mm
06:47 9.6 °C 8.8 °C 1018.2 hPa NW 8 km/h 12.9 km/h 95% 0 mm
06:52 9.6 °C 8.8 °C 1018.2 hPa WNW 4.8 km/h 16.1 km/h 95% 0 mm
06:57 9.6 °C 8.8 °C 1018.2 hPa WNW 3.2 km/h 11.3 km/h 95% 0 mm
07:02 9.5 °C 8.7 °C 1018.2 hPa WNW 6.4 km/h 11.3 km/h 95% 0 mm
07:07 9.5 °C 8.7 °C 1018.2 hPa WNW 4.8 km/h 11.3 km/h 95% 0 mm
07:12 9.5 °C 8.7 °C 1018.5 hPa WNW 4.8 km/h 8 km/h 95% 0 mm
07:17 9.5 °C 8.7 °C 1018.5 hPa WNW 6.4 km/h 12.9 km/h 95% 0 mm
07:22 9.5 °C 8.6 °C 1018.5 hPa WNW 6.4 km/h 19.3 km/h 94% 0 mm
07:27 9.5 °C 8.6 °C 1018.5 hPa West 4.8 km/h 11.3 km/h 94% 0 mm
07:32 9.5 °C 8.6 °C 1018.5 hPa NW 11.3 km/h 11.3 km/h 94% 0 mm
07:37 9.6 °C 8.6 °C 1018.8 hPa West 6.4 km/h 9.7 km/h 94% 0 mm
07:42 9.6 °C 8.6 °C 1018.8 hPa WNW 3.2 km/h 12.9 km/h 94% 0 mm
07:47 9.5 °C 8.6 °C 1018.8 hPa NW 4.8 km/h 12.9 km/h 94% 0 mm
07:52 9.6 °C 8.6 °C 1018.8 hPa WNW 8 km/h 14.5 km/h 94% 0 mm
07:57 9.6 °C 8.6 °C 1018.8 hPa WNW 8 km/h 11.3 km/h 94% 0 mm
08:02 9.5 °C 8.6 °C 1019.2 hPa WNW 4.8 km/h 9.7 km/h 94% 0 mm
08:07 9.5 °C 8.6 °C 1018.8 hPa WNW 8 km/h 8 km/h 94% 0 mm
08:12 9.5 °C 8.6 °C 1018.8 hPa WNW 8 km/h 8 km/h 94% 0 mm
08:17 9.4 °C 8.5 °C 1018.8 hPa NW 4.8 km/h 9.7 km/h 94% 0 mm
08:22 9.4 °C 8.5 °C 1018.8 hPa WNW 4.8 km/h 11.3 km/h 94% 0 mm
08:27 9.4 °C 8.5 °C 1018.8 hPa WNW 3.2 km/h 6.4 km/h 94% 0 mm
08:32 9.4 °C 8.4 °C 1018.8 hPa WNW 3.2 km/h 6.4 km/h 94% 0 mm
08:38 9.4 °C 8.4 °C 1018.8 hPa WNW 3.2 km/h 3.2 km/h 94% 0 mm
08:43 9.4 °C 8.5 °C 1018.8 hPa NW 3.2 km/h 4.8 km/h 94% 0 mm
08:48 9.6 °C 8.6 °C 1019.2 hPa West 4.8 km/h 4.8 km/h 94% 0 mm
08:53 9.6 °C 8.7 °C 1019.2 hPa NW 6.4 km/h 8 km/h 94% 0 mm
08:58 9.7 °C 8.8 °C 1019.2 hPa West 4.8 km/h 6.4 km/h 94% 0 mm
09:03 9.7 °C 8.8 °C 1019.2 hPa WNW 8 km/h 9.7 km/h 94% 0 mm
09:08 9.7 °C 8.8 °C 1019.2 hPa WNW 6.4 km/h 11.3 km/h 94% 0 mm
09:13 9.8 °C 8.9 °C 1019.5 hPa WNW 3.2 km/h 6.4 km/h 94% 0 mm
09:18 9.8 °C 8.9 °C 1019.5 hPa WNW 4.8 km/h 6.4 km/h 94% 0 mm
09:23 9.8 °C 8.9 °C 1019.5 hPa WNW 9.7 km/h 9.7 km/h 94% 0 mm
09:28 9.7 °C 8.8 °C 1019.5 hPa West 6.4 km/h 12.9 km/h 94% 0 mm
09:33 9.7 °C 8.8 °C 1019.5 hPa WNW 6.4 km/h 8 km/h 94% 0 mm
09:38 9.7 °C 8.8 °C 1019.9 hPa WNW 8 km/h 11.3 km/h 94% 0 mm
09:43 9.8 °C 8.9 °C 1019.9 hPa WSW 6.4 km/h 8 km/h 94% 0 mm
09:48 9.7 °C 8.8 °C 1019.9 hPa WSW 8 km/h 9.7 km/h 94% 0 mm
09:53 9.7 °C 8.8 °C 1020.2 hPa West 6.4 km/h 9.7 km/h 94% 0 mm
09:58 9.7 °C 8.7 °C 1020.2 hPa NW 8 km/h 11.3 km/h 93% 0 mm
10:03 9.8 °C 8.7 °C 1019.9 hPa WNW 6.4 km/h 9.7 km/h 93% 0 mm
10:08 9.8 °C 8.8 °C 1020.2 hPa West 4.8 km/h 8 km/h 93% 0 mm
10:13 10 °C 8.9 °C 1020.2 hPa WNW 11.3 km/h 12.9 km/h 93% 0 mm
10:18 10 °C 8.9 °C 1020.2 hPa WNW 9.7 km/h 9.7 km/h 93% 0 mm
10:24 10.1 °C 8.8 °C 1020.2 hPa WNW 9.7 km/h 12.9 km/h 92% 0 mm
10:29 10.3 °C 9.1 °C 1020.2 hPa WNW 8 km/h 11.3 km/h 92% 0 mm
10:34 10.4 °C 9.1 °C 1020.2 hPa WNW 11.3 km/h 17.7 km/h 91% 0 mm
10:39 10.3 °C 8.8 °C 1020.2 hPa NW 12.9 km/h 16.1 km/h 90% 0 mm
10:44 10.3 °C 8.8 °C 1020.2 hPa WNW 6.4 km/h 16.1 km/h 90% 0 mm
10:49 10.4 °C 8.8 °C 1020.2 hPa NW 6.4 km/h 11.3 km/h 90% 0 mm
10:54 10.4 °C 8.9 °C 1020.2 hPa NNW 8 km/h 14.5 km/h 90% 0 mm
10:59 10.6 °C 8.7 °C 1020.2 hPa WNW 9.7 km/h 16.1 km/h 88% 0 mm
11:04 10.5 °C 8.6 °C 1020.5 hPa WNW 11.3 km/h 16.1 km/h 88% 0 mm
11:09 10.6 °C 8.7 °C 1020.5 hPa NW 17.7 km/h 17.7 km/h 88% 0 mm
11:14 10.7 °C 8.7 °C 1020.5 hPa WNW 8 km/h 12.9 km/h 87% 0 mm
11:19 10.9 °C 8.8 °C 1020.5 hPa NW 14.5 km/h 14.5 km/h 87% 0 mm
11:24 11.1 °C 8.8 °C 1020.9 hPa NNW 4.8 km/h 14.5 km/h 86% 0 mm
11:29 11.3 °C 8.7 °C 1020.9 hPa NW 11.3 km/h 14.5 km/h 84% 0 mm
11:34 11.2 °C 8.6 °C 1020.9 hPa NW 9.7 km/h 14.5 km/h 84% 0 mm
11:39 11.3 °C 8.7 °C 1021.2 hPa West 9.7 km/h 12.9 km/h 84% 0 mm
11:44 11.3 °C 8.4 °C 1021.2 hPa WNW 14.5 km/h 16.1 km/h 82% 0 mm
11:49 11.4 °C 8.6 °C 1021.2 hPa NW 11.3 km/h 16.1 km/h 83% 0 mm
11:54 11.3 °C 8.3 °C 1020.9 hPa NW 9.7 km/h 16.1 km/h 82% 0 mm
11:59 11.3 °C 8.7 °C 1020.9 hPa WNW 8 km/h 11.3 km/h 84% 0 mm
12:05 11.7 °C 8.5 °C 1020.9 hPa WNW 12.9 km/h 12.9 km/h 81% 0 mm
12:10 12.2 °C 9.2 °C 1020.5 hPa NW 14.5 km/h 14.5 km/h 82% 0 mm
12:15 11.9 °C 8.2 °C 1020.5 hPa WNW 9.7 km/h 14.5 km/h 78% 0 mm
12:20 11.9 °C 8.2 °C 1020.5 hPa NW 17.7 km/h 17.7 km/h 78% 0 mm
12:25 12.2 °C 8.3 °C 1020.9 hPa WNW 11.3 km/h 17.7 km/h 77% 0 mm
12:30 12.4 °C 7.9 °C 1020.9 hPa West 9.7 km/h 14.5 km/h 74% 0 mm
12:35 12.8 °C 8.4 °C 1020.9 hPa WNW 8 km/h 11.3 km/h 75% 0 mm
12:36 12.8 °C 8.7 °C 1020.9 hPa NW 11.3 km/h 11.3 km/h 76% 0 mm
12:41 12.4 °C 8.1 °C 1020.9 hPa WNW 6.4 km/h 16.1 km/h 75% 0 mm
12:46 12.2 °C 8.4 °C 1020.5 hPa NNW 9.7 km/h 11.3 km/h 78% 0 mm
12:51 12.2 °C 8.3 °C 1020.5 hPa North 6.4 km/h 12.9 km/h 77% 0 mm
12:56 12.2 °C 8.1 °C 1020.5 hPa NW 9.7 km/h 16.1 km/h 76% 0 mm
13:01 12.1 °C 8.2 °C 1020.2 hPa NW 6.4 km/h 11.3 km/h 77% 0 mm
13:06 11.9 °C 7.8 °C 1020.2 hPa WNW 8 km/h 12.9 km/h 76% 0 mm
13:11 12.3 °C 7.8 °C 1020.2 hPa NW 6.4 km/h 12.9 km/h 74% 0 mm
13:16 12.6 °C 7.5 °C 1020.2 hPa NNW 4.8 km/h 12.9 km/h 71% 0 mm
13:21 12.8 °C 8.1 °C 1020.2 hPa NNW 1.6 km/h 12.9 km/h 73% 0 mm
13:26 12.8 °C 7.4 °C 1020.2 hPa NNW 8 km/h 9.7 km/h 70% 0 mm
13:31 12.8 °C 7.4 °C 1020.2 hPa NW 6.4 km/h 9.7 km/h 70% 0 mm
13:36 12.6 °C 7.8 °C 1020.2 hPa WNW 9.7 km/h 16.1 km/h 73% 0 mm
13:41 12.3 °C 7.6 °C 1019.9 hPa NW 11.3 km/h 16.1 km/h 73% 0 mm
13:46 12.1 °C 7.6 °C 1019.9 hPa WNW 17.7 km/h 17.7 km/h 74% 0 mm
13:51 12.1 °C 6.9 °C 1019.9 hPa NW 6.4 km/h 16.1 km/h 71% 0 mm
13:56 12.1 °C 7 °C 1019.9 hPa WNW 6.4 km/h 12.9 km/h 71% 0 mm
14:01 12.1 °C 7.2 °C 1019.9 hPa NW 12.9 km/h 12.9 km/h 72% 0 mm
14:06 12.2 °C 7.3 °C 1019.9 hPa NW 6.4 km/h 9.7 km/h 72% 0 mm
14:11 12.4 °C 7.7 °C 1019.9 hPa NW 4.8 km/h 9.7 km/h 73% 0 mm
14:16 12.9 °C 7.2 °C 1019.9 hPa WNW 12.9 km/h 14.5 km/h 68% 0 mm
14:21 12.6 °C 6.6 °C 1019.9 hPa WNW 9.7 km/h 17.7 km/h 67% 0 mm
14:26 12.3 °C 6.6 °C 1019.9 hPa NW 12.9 km/h 17.7 km/h 68% 0 mm
14:31 12.1 °C 6.3 °C 1020.2 hPa WNW 8 km/h 17.7 km/h 68% 0 mm
14:37 12.2 °C 6.7 °C 1020.2 hPa WNW 12.9 km/h 14.5 km/h 69% 0 mm
14:42 12.1 °C 6.3 °C 1019.9 hPa West 6.4 km/h 17.7 km/h 68% 0 mm
14:47 12.1 °C 6.8 °C 1019.9 hPa NW 6.4 km/h 12.9 km/h 70% 0 mm
14:52 12.3 °C 6.9 °C 1019.9 hPa NW 8 km/h 12.9 km/h 70% 0 mm
14:57 12.2 °C 6.2 °C 1019.9 hPa NW 12.9 km/h 16.1 km/h 67% 0 mm
15:02 12.2 °C 6.7 °C 1019.9 hPa WNW 9.7 km/h 12.9 km/h 69% 0 mm
15:07 12.3 °C 6.6 °C 1019.9 hPa NW 12.9 km/h 12.9 km/h 68% 0 mm
15:12 12.1 °C 6.4 °C 1019.9 hPa WNW 14.5 km/h 20.9 km/h 68% 0 mm
15:17 12.1 °C 6.6 °C 1020.2 hPa WNW 12.9 km/h 14.5 km/h 69% 0 mm
15:22 12 °C 6.3 °C 1019.9 hPa NW 9.7 km/h 12.9 km/h 68% 0 mm
15:27 12 °C 6.3 °C 1019.9 hPa WNW 11.3 km/h 12.9 km/h 68% 0 mm
15:32 12.1 °C 6.6 °C 1020.2 hPa WNW 11.3 km/h 11.3 km/h 69% 0 mm
15:37 12.1 °C 6.6 °C 1019.9 hPa NW 11.3 km/h 14.5 km/h 69% 0 mm
15:42 12.1 °C 6.8 °C 1020.2 hPa NW 8 km/h 12.9 km/h 70% 0 mm
15:47 12.1 °C 6.8 °C 1020.2 hPa WNW 6.4 km/h 12.9 km/h 70% 0 mm
15:52 12.1 °C 6.2 °C 1019.9 hPa NW 11.3 km/h 17.7 km/h 67% 0 mm
15:57 11.9 °C 6.4 °C 1020.2 hPa WNW 11.3 km/h 16.1 km/h 69% 0 mm
16:02 11.8 °C 6.3 °C 1019.9 hPa WNW 12.9 km/h 16.1 km/h 69% 0 mm
16:07 11.9 °C 6.7 °C 1019.9 hPa West 9.7 km/h 14.5 km/h 70% 0 mm
16:12 12 °C 6.7 °C 1019.9 hPa WNW 9.7 km/h 12.9 km/h 70% 0 mm
16:17 12 °C 6.7 °C 1019.9 hPa WNW 9.7 km/h 14.5 km/h 70% 0 mm
16:22 11.9 °C 6.4 °C 1019.9 hPa NNW 11.3 km/h 17.7 km/h 69% 0 mm
16:27 11.8 °C 6.1 °C 1019.9 hPa WNW 8 km/h 14.5 km/h 68% 0 mm
16:32 11.7 °C 6 °C 1020.2 hPa NW 11.3 km/h 16.1 km/h 68% 0 mm
16:38 11.8 °C 6.3 °C 1020.2 hPa NW 6.4 km/h 12.9 km/h 69% 0 mm
16:43 11.7 °C 6.2 °C 1020.5 hPa NNW 6.4 km/h 12.9 km/h 69% 0 mm
16:48 11.7 °C 6.2 °C 1020.5 hPa WNW 6.4 km/h 11.3 km/h 69% 0 mm
16:53 11.7 °C 6.4 °C 1020.5 hPa WNW 3.2 km/h 6.4 km/h 70% 0 mm
16:58 11.7 °C 6 °C 1020.5 hPa WNW 4.8 km/h 12.9 km/h 68% 0 mm
17:03 11.7 °C 5.3 °C 1020.5 hPa WNW 12.9 km/h 17.7 km/h 65% 0 mm
17:08 11.6 °C 5.3 °C 1020.5 hPa NW 9.7 km/h 12.9 km/h 65% 0 mm
17:13 11.6 °C 5.1 °C 1020.2 hPa WNW 6.4 km/h 11.3 km/h 64% 0 mm
17:18 11.6 °C 5 °C 1020.2 hPa NW 11.3 km/h 11.3 km/h 64% 0 mm
17:23 11.4 °C 5.3 °C 1020.2 hPa NNW 9.7 km/h 11.3 km/h 66% 0 mm
17:28 11.4 °C 5.3 °C 1020.5 hPa NW 9.7 km/h 9.7 km/h 66% 0 mm
17:33 11.3 °C 4.9 °C 1020.5 hPa NW 8 km/h 11.3 km/h 65% 0 mm
17:38 11.3 °C 5.4 °C 1020.5 hPa NW 8 km/h 11.3 km/h 67% 0 mm
17:43 11.2 °C 5.1 °C 1020.5 hPa NW 8 km/h 9.7 km/h 66% 0 mm
17:48 11.2 °C 5.3 °C 1020.5 hPa NW 4.8 km/h 9.7 km/h 67% 0 mm
17:53 11.1 °C 5.4 °C 1020.5 hPa WNW 6.4 km/h 12.9 km/h 68% 0 mm
17:59 11 °C 5.6 °C 1020.5 hPa WNW 6.4 km/h 11.3 km/h 69% 0 mm
18:04 10.9 °C 5.7 °C 1020.5 hPa WNW 6.4 km/h 9.7 km/h 70% 0 mm
18:09 10.8 °C 5.7 °C 1020.5 hPa NW 9.7 km/h 9.7 km/h 71% 0 mm
18:14 10.7 °C 5.8 °C 1020.9 hPa WNW 8 km/h 8 km/h 72% 0 mm
18:19 10.6 °C 5.8 °C 1020.9 hPa WNW 4.8 km/h 9.7 km/h 72% 0 mm
18:24 10.5 °C 5.7 °C 1020.9 hPa NW 6.4 km/h 12.9 km/h 72% 0 mm
18:29 10.4 °C 5.8 °C 1020.9 hPa WNW 6.4 km/h 9.7 km/h 73% 0 mm
18:34 10.4 °C 5.8 °C 1020.9 hPa WNW 11.3 km/h 11.3 km/h 73% 0 mm
18:39 10.3 °C 5.7 °C 1020.9 hPa NNW 4.8 km/h 6.4 km/h 73% 0 mm
18:44 10.2 °C 5.6 °C 1020.9 hPa NW 6.4 km/h 8 km/h 73% 0 mm
18:49 10.2 °C 5.7 °C 1020.9 hPa NW 8 km/h 9.7 km/h 74% 0 mm
18:54 10.1 °C 5.7 °C 1020.9 hPa NNW 8 km/h 17.7 km/h 74% 0 mm
18:59 10.1 °C 5.8 °C 1021.2 hPa NW 8 km/h 12.9 km/h 75% 0 mm
19:04 9.9 °C 6.1 °C 1020.9 hPa NNW 9.7 km/h 14.5 km/h 77% 0 mm
19:09 9.7 °C 6.2 °C 1021.2 hPa North 8 km/h 14.5 km/h 79% 0 mm
19:14 9.5 °C 6.1 °C 1020.9 hPa North 8 km/h 12.9 km/h 79% 0 mm
19:19 9.3 °C 6.1 °C 1020.9 hPa North 8 km/h 14.5 km/h 80% 0 mm
19:24 9.2 °C 6.1 °C 1021.2 hPa NNW 9.7 km/h 12.9 km/h 81% 0 mm
19:29 9.1 °C 6 °C 1021.2 hPa North 6.4 km/h 11.3 km/h 81% 0 mm
19:34 9 °C 6.1 °C 1021.2 hPa NNW 6.4 km/h 8 km/h 82% 0 mm
19:40 8.9 °C 6 °C 1021.2 hPa NNW 8 km/h 8 km/h 82% 0 mm
19:45 8.8 °C 6.1 °C 1021.2 hPa NW 6.4 km/h 9.7 km/h 83% 0 mm
19:50 8.7 °C 5.9 °C 1021.2 hPa NNW 4.8 km/h 8 km/h 83% 0 mm
19:55 8.6 °C 6 °C 1021.2 hPa NNW 6.4 km/h 8 km/h 84% 0 mm
20:00 8.4 °C 5.9 °C 1021.2 hPa NW 3.2 km/h 6.4 km/h 84% 0 mm
20:05 8.4 °C 6 °C 1021.2 hPa NNW 4.8 km/h 6.4 km/h 85% 0 mm
20:10 8.3 °C 5.9 °C 1021.2 hPa NNW 6.4 km/h 9.7 km/h 85% 0 mm
20:15 8.2 °C 5.8 °C 1021.2 hPa NNW 3.2 km/h 6.4 km/h 85% 0 mm
20:20 8.2 °C 5.8 °C 1021.2 hPa NW 6.4 km/h 6.4 km/h 85% 0 mm
20:25 8.2 °C 5.8 °C 1021.2 hPa North 3.2 km/h 4.8 km/h 85% 0 mm
20:30 8.1 °C 5.7 °C 1021.2 hPa North 3.2 km/h 3.2 km/h 85% 0 mm
20:35 8 °C 5.6 °C 1021.6 hPa Calm   4.8 km/h 85% 0 mm
20:40 7.9 °C 5.7 °C 1021.6 hPa NW 1.6 km/h 3.2 km/h 86% 0 mm
20:45 7.8 °C 5.6 °C 1021.6 hPa NW 3.2 km/h 3.2 km/h 86% 0 mm
20:50 7.7 °C 5.7 °C 1021.6 hPa NW 4.8 km/h 4.8 km/h 87% 0 mm
20:55 7.7 °C 5.7 °C 1021.9 hPa NW 1.6 km/h 3.2 km/h 87% 0 mm
21:00 7.7 °C 5.7 °C 1021.9 hPa NW 1.6 km/h 4.8 km/h 87% 0 mm
21:05 7.7 °C 5.7 °C 1021.6 hPa NW 3.2 km/h 4.8 km/h 87% 0 mm
21:10 7.7 °C 5.7 °C 1021.9 hPa NW 4.8 km/h 6.4 km/h 87% 0 mm
21:15 7.8 °C 5.7 °C 1021.9 hPa NW 4.8 km/h 9.7 km/h 87% 0 mm
21:20 7.8 °C 5.7 °C 1021.9 hPa NW 6.4 km/h 8 km/h 87% 0 mm
21:25 7.8 °C 5.8 °C 1021.9 hPa NNW 8 km/h 11.3 km/h 87% 0 mm
21:30 7.8 °C 5.7 °C 1021.9 hPa NW 12.9 km/h 16.1 km/h 87% 0 mm
21:35 7.7 °C 5.7 °C 1021.9 hPa WNW 4.8 km/h 9.7 km/h 87% 0 mm
21:40 7.6 °C 5.6 °C 1021.9 hPa NW 3.2 km/h 12.9 km/h 87% 0 mm
21:45 7.5 °C 5.7 °C 1021.9 hPa NW 8 km/h 8 km/h 88% 0 mm
21:50 7.4 °C 5.7 °C 1021.9 hPa NNW 3.2 km/h 6.4 km/h 89% 0 mm
21:55 7.4 °C 5.7 °C 1021.9 hPa NW 4.8 km/h 8 km/h 89% 0 mm
22:00 7.3 °C 5.6 °C 1022.2 hPa NW 8 km/h 11.3 km/h 89% 0 mm
22:05 7.2 °C 5.6 °C 1021.9 hPa NW 8 km/h 8 km/h 89% 0 mm
22:10 7.2 °C 5.7 °C 1021.9 hPa NW 6.4 km/h 9.7 km/h 90% 0 mm
22:15 7.1 °C 5.6 °C 1021.9 hPa NW 8 km/h 9.7 km/h 90% 0 mm
22:20 7.1 °C 5.6 °C 1021.9 hPa North 4.8 km/h 9.7 km/h 90% 0 mm
22:25 6.9 °C 5.4 °C 1021.9 hPa NNW 4.8 km/h 8 km/h 90% 0 mm
22:30 6.9 °C 5.5 °C 1021.9 hPa NNW 6.4 km/h 6.4 km/h 91% 0 mm
22:35 6.8 °C 5.4 °C 1021.9 hPa NNW 4.8 km/h 6.4 km/h 91% 0 mm
22:40 6.7 °C 5.5 °C 1021.9 hPa NNW 6.4 km/h 8 km/h 92% 0 mm
22:45 6.6 °C 5.4 °C 1021.9 hPa NW 4.8 km/h 8 km/h 92% 0 mm
22:50 6.6 °C 5.3 °C 1021.6 hPa NW 8 km/h 8 km/h 92% 0 mm
22:55 6.5 °C 5.3 °C 1021.9 hPa NW 6.4 km/h 8 km/h 92% 0 mm
23:00 6.4 °C 5.2 °C 1021.6 hPa NW 3.2 km/h 6.4 km/h 92% 0 mm
23:05 6.3 °C 5.3 °C 1021.6 hPa NW 6.4 km/h 8 km/h 93% 0 mm
23:10 6.3 °C 5.2 °C 1021.6 hPa NW 3.2 km/h 6.4 km/h 93% 0 mm
23:15 6.2 °C 5.2 °C 1021.6 hPa NW 3.2 km/h 4.8 km/h 93% 0 mm
23:20 6.2 °C 5.2 °C 1021.6 hPa NNW 3.2 km/h 4.8 km/h 93% 0 mm
23:25 6.2 °C 5.2 °C 1021.6 hPa NW 3.2 km/h 6.4 km/h 93% 0 mm
23:30 6.1 °C 5.1 °C 1021.6 hPa NW 3.2 km/h 4.8 km/h 93% 0 mm
23:35 6.1 °C 5.2 °C 1021.9 hPa NW 3.2 km/h 4.8 km/h 94% 0 mm
23:36 6.1 °C 5.2 °C 1021.9 hPa NW 3.2 km/h 4.8 km/h 94% 0 mm
23:41 6.1 °C 5.2 °C 1021.9 hPa NW 3.2 km/h 3.2 km/h 94% 0 mm
23:46 6 °C 5.1 °C 1021.9 hPa NW 3.2 km/h 4.8 km/h 94% 0 mm
23:51 6 °C 5.1 °C 1021.9 hPa NW 1.6 km/h 3.2 km/h 94% 0 mm
23:56 5.9 °C 5.1 °C 1021.9 hPa NW 3.2 km/h 4.8 km/h 94% 0 mm
Compliments of Weather Underground